Time;durP1;ratioP1;P1;durP2;ratioP2;P2;SDS_P1;SDS_P2;PMS_P1;PMS_P2;Temp;Humidity;BMP_temperature;BMP_pressure;BME280_temperature;BME280_humidity;BME280_pressure;Samples;Min_cycle;Max_cycle;Signal;HPM_P1;HPM_P2
2022/02/10 00:03:23;;;;;;;22.92;12.95;;;;;;;8.05;92.22;102227.91;5094043;28;20056;-83
2022/02/10 00:07:18;;;;;;;21.52;12.15;;;;;;;8.07;92.14;102225.28;5096419;28;20117;-83
2022/02/10 00:17:58;;;;;;;21.27;13.73;;;;;;;8.00;92.12;102229.69;5081425;28;20248;-82
2022/02/10 00:20:32;;;;;;;32.90;18.02;;;;;;;7.95;92.29;102233.22;5083638;28;20320;-83
2022/02/10 00:23:13;;;;;;;35.65;18.70;;;;;;;7.91;91.91;102228.91;5059956;28;20024;-83
2022/02/10 00:34:08;;;;;;;29.35;17.27;;;;;;;7.88;92.28;102228.03;5081324;28;20110;-83
2022/02/10 00:36:25;;;;;;;26.08;15.70;;;;;;;7.88;92.87;102201.97;5072424;28;20374;-83
2022/02/10 00:39:01;;;;;;;25.75;15.07;;;;;;;7.91;92.73;102202.81;5098098;28;20250;-83
2022/02/10 00:41:27;;;;;;;25.98;14.35;;;;;;;7.94;92.67;102194.97;5097767;28;20043;-83
2022/02/10 00:43:52;;;;;;;29.80;16.63;;;;;;;7.93;92.38;102188.00;5094886;28;20032;-83
2022/02/10 00:46:18;;;;;;;32.50;19.40;;;;;;;7.92;92.34;102196.72;5095380;28;20039;-83
2022/02/10 00:48:43;;;;;;;35.00;20.77;;;;;;;7.91;92.15;102189.75;5096340;28;20381;-83
2022/02/10 00:51:10;;;;;;;37.67;21.42;;;;;;;7.83;92.33;102193.28;5059163;28;20032;-83
2022/02/10 00:53:39;;;;;;;37.17;21.67;;;;;;;7.79;92.28;102189.00;5061711;28;20042;-83
2022/02/10 00:56:06;;;;;;;36.28;20.55;;;;;;;7.79;92.61;102190.75;5095114;28;20039;-83
2022/02/10 00:58:33;;;;;;;39.95;21.58;;;;;;;7.72;92.70;102191.66;5079025;28;20067;-83
2022/02/10 01:30:17;;;;;;;37.38;18.08;;;;;;;7.68;93.10;102133.44;5090167;28;20333;-83
2022/02/10 01:32:44;;;;;;;36.95;20.27;;;;;;;7.66;92.97;102136.06;5067156;28;20312;-83
2022/02/10 01:35:12;;;;;;;35.38;19.73;;;;;;;7.66;93.01;102127.38;5076920;28;20064;-83
2022/02/10 01:37:39;;;;;;;33.00;19.70;;;;;;;7.65;93.03;102123.88;5090495;28;20038;-83
2022/02/10 01:40:20;;;;;;;32.03;17.92;;;;;;;7.67;93.10;102131.72;5062380;28;20059;-83
2022/02/10 02:04:49;;;;;;;31.75;17.20;;;;;;;7.57;93.07;102091.81;5090919;28;20251;-83
2022/02/10 02:07:15;;;;;;;39.38;20.35;;;;;;;7.57;92.89;102090.97;5100529;28;20027;-83
2022/02/10 02:09:40;;;;;;;34.58;18.58;;;;;;;7.55;92.96;102090.09;5071250;28;20316;-83
2022/02/10 02:12:07;;;;;;;31.73;17.10;;;;;;;7.55;93.08;102077.94;5065542;28;20065;-83
2022/02/10 02:14:33;;;;;;;34.08;18.17;;;;;;;7.54;93.28;102084.00;5064046;28;20251;-83
2022/02/10 02:17:05;;;;;;;29.63;18.13;;;;;;;7.54;93.40;102081.41;5080120;28;20036;-83
2022/02/10 02:19:34;;;;;;;28.38;16.30;;;;;;;7.56;93.40;102077.03;5064482;28;20032;-83
2022/02/10 02:22:00;;;;;;;39.25;18.50;;;;;;;7.56;93.62;102079.66;5095452;28;20039;-83
2022/02/10 02:24:26;;;;;;;32.97;17.83;;;;;;;7.54;93.87;102081.41;5078710;28;20058;-83
2022/02/10 02:26:53;;;;;;;36.20;19.60;;;;;;;7.55;93.82;102070.13;5097338;28;20067;-83
2022/02/10 02:29:27;;;;;;;37.25;19.10;;;;;;;7.55;93.61;102074.44;5099936;28;20042;-83
2022/02/10 02:31:59;;;;;;;39.22;19.35;;;;;;;7.53;94.00;102066.66;5110235;28;20063;-83
2022/02/10 02:37:52;;;;;;;41.80;19.83;;;;;;;7.49;94.32;102065.81;5080015;28;20047;-83
2022/02/10 03:05:26;;;;;;;41.42;19.60;;;;;;;7.53;94.65;102031.88;5059607;28;20075;-83
2022/02/10 03:07:55;;;;;;;34.92;18.17;;;;;;;7.54;94.77;102029.28;5044812;28;20044;-82
2022/02/10 03:10:57;;;;;;;42.38;20.45;;;;;;;7.53;94.79;102031.88;5059775;28;20068;-82
2022/02/10 03:13:26;;;;;;;37.38;19.02;;;;;;;7.54;94.92;102028.41;5060759;28;20056;-81
2022/02/10 03:21:46;;;;;;;37.38;18.63;;;;;;;7.51;94.93;102016.25;5049576;28;20348;-83
2022/02/10 04:12:55;;;;;;;48.20;20.75;;;;;;;7.68;93.99;102014.34;5076300;28;20042;-83
2022/02/10 04:23:11;;;;;;;39.22;17.88;;;;;;;7.60;94.60;102008.34;5079928;28;20142;-83
2022/02/10 04:26:26;;;;;;;45.13;19.02;;;;;;;7.60;94.48;102015.31;5088498;28;20282;-83
2022/02/10 04:28:47;;;;;;;;;;;;;;;7.54;94.90;102018.84;5079837;28;20075;-83
2022/02/10 04:53:02;;;;;;;51.65;20.60;;;;;;;7.39;95.66;102016.38;5084072;28;20313;-83
2022/02/10 04:58:46;;;;;;;39.35;16.92;;;;;;;7.44;95.86;102006.75;5072907;28;20217;-84
2022/02/10 05:17:44;;;;;;;27.73;12.50;;;;;;;7.47;95.96;102006.75;5074458;28;20119;-85
2022/02/10 05:22:45;;;;;;;24.03;11.77;;;;;;;7.53;95.85;102014.53;5079802;28;20032;-84
2022/02/10 05:36:08;;;;;;;4.78;3.58;;;;;;;7.59;94.93;102011.84;5081054;28;20048;-84
2022/02/10 05:38:39;;;;;;;5.45;2.88;;;;;;;7.60;94.81;102010.09;5060678;28;20251;-84
2022/02/10 05:51:50;;;;;;;2.40;2.00;;;;;;;7.57;94.37;102016.22;5077104;28;20055;-84
2022/02/10 05:57:05;;;;;;;3.78;2.42;;;;;;;7.54;94.15;102029.28;5091355;28;20048;-85
2022/02/10 06:49:18;;;;;;;2.97;1.90;;;;;;;7.08;93.10;102066.97;5100762;28;20036;-85
2022/02/10 06:52:01;;;;;;;2.90;1.67;;;;;;;7.11;93.24;102063.47;5075735;28;20039;-85
2022/02/10 06:55:19;;;;;;;1.50;1.40;;;;;;;7.15;93.50;102067.81;5093849;28;20098;-85
2022/02/10 06:57:49;;;;;;;4.25;1.60;;;;;;;7.17;93.40;102067.78;5066723;28;20048;-85
2022/02/10 07:16:34;;;;;;;7.22;1.60;;;;;;;7.25;93.00;102084.22;5080752;28;20036;-84
2022/02/10 07:50:53;;;;;;;1.40;1.30;;;;;;;7.18;92.39;102099.03;5081270;28;20356;-84
2022/02/10 09:01:17;;;;;;;2.47;2.10;;;;;;;7.26;91.67;102166.75;5078529;28;20027;-84
2022/02/10 09:12:28;;;;;;;4.07;1.77;;;;;;;7.20;91.33;102172.84;5059619;28;20031;-84
2022/02/10 09:23:53;;;;;;;6.05;2.35;;;;;;;7.14;90.93;102185.06;5076016;28;20107;-84
2022/02/10 09:55:48;;;;;;;4.38;1.73;;;;;;;7.02;89.85;102193.78;5076844;28;20070;-84
2022/02/10 10:00:54;;;;;;;6.00;1.40;;;;;;;7.03;88.91;102203.34;5070529;28;20043;-84
2022/02/10 10:03:30;;;;;;;6.78;2.25;;;;;;;6.98;88.45;102197.28;5088592;28;20040;-83
2022/02/10 10:06:13;;;;;;;11.55;2.00;;;;;;;6.97;88.39;102208.56;5091756;28;20338;-83
2022/02/10 10:09:02;;;;;;;6.82;1.73;;;;;;;6.98;88.03;102208.56;5096419;28;20228;-83
2022/02/10 10:14:21;;;;;;;3.25;1.38;;;;;;;6.97;87.28;102221.56;5091959;28;20070;-83
2022/02/10 10:17:02;;;;;;;6.45;1.88;;;;;;;6.96;87.18;102219.84;5093736;28;20064;-83
2022/02/10 10:51:11;;;;;;;12.60;2.58;;;;;;;6.95;87.08;102219.00;5097875;28;20038;-83
2022/02/10 10:53:46;;;;;;;7.00;2.13;;;;;;;6.96;87.62;102223.31;5093402;28;20088;-83
2022/02/10 10:56:22;;;;;;;5.32;1.67;;;;;;;7.00;87.77;102221.56;5057076;28;20063;-83
2022/02/10 11:45:11;;;;;;;9.30;1.88;;;;;;;7.01;81.42;102228.53;5095132;28;20027;-83
2022/02/10 14:14:48;;;;;;;6.88;1.83;;;;;;;6.65;78.71;102209.53;5073240;28;20039;-82
2022/02/10 14:17:18;;;;;;;5.68;1.17;;;;;;;6.66;79.07;102209.53;5072697;28;20040;-82
2022/02/10 14:19:58;;;;;;;3.08;1.00;;;;;;;6.64;78.23;102213.88;5076476;28;20052;-82
2022/02/10 14:27:46;;;;;;;8.18;1.95;;;;;;;6.61;77.56;102224.28;5072435;28;20119;-82
2022/02/10 14:30:12;;;;;;;2.53;0.85;;;;;;;6.60;77.33;102230.34;5081444;28;20347;-82
2022/02/10 14:32:42;;;;;;;6.00;1.33;;;;;;;6.60;76.90;102229.50;5049939;28;20063;-83
2022/02/10 14:35:22;;;;;;;6.38;1.48;;;;;;;6.60;77.37;102232.09;5070315;28;20040;-82
2022/02/10 16:13:02;;;;;;;4.70;1.42;;;;;;;6.13;78.78;102239.06;5071013;28;20043;-82
2022/02/10 16:17:29;;;;;;;7.60;1.40;;;;;;;6.09;77.90;102227.81;5096672;28;20044;-82
2022/02/10 16:20:06;;;;;;;8.45;1.48;;;;;;;6.10;78.67;102223.47;5059569;28;20115;-82
2022/02/10 16:22:37;;;;;;;4.53;1.23;;;;;;;6.10;79.13;102221.75;5079848;28;20081;-82
2022/02/10 16:25:06;;;;;;;4.55;1.10;;;;;;;6.10;78.84;102220.88;5074837;28;20047;-82
2022/02/10 16:27:33;;;;;;;3.33;1.13;;;;;;;6.10;78.96;102220.88;5092851;28;20434;-82
2022/02/10 16:30:03;;;;;;;5.53;1.20;;;;;;;6.09;78.85;102213.94;5077203;28;20200;-82
2022/02/10 16:32:31;;;;;;;8.65;1.10;;;;;;;6.07;77.80;102223.47;5060685;28;20043;-82
2022/02/10 16:34:58;;;;;;;6.83;1.40;;;;;;;6.06;77.79;102226.94;5095327;28;20069;-82
2022/02/10 16:37:24;;;;;;;2.22;0.90;;;;;;;6.03;77.66;102224.34;5094335;28;20039;-82
2022/02/10 16:39:50;;;;;;;4.70;1.02;;;;;;;6.05;78.34;102222.59;5053097;28;20054;-82
2022/02/10 16:42:16;;;;;;;4.50;1.38;;;;;;;6.06;78.84;102225.22;5071243;28;20059;-82
2022/02/10 16:44:43;;;;;;;2.25;1.17;;;;;;;6.06;78.32;102219.16;5089410;28;20047;-82
2022/02/10 16:47:10;;;;;;;3.97;1.10;;;;;;;6.05;78.32;102222.59;5094946;28;20028;-82
2022/02/10 16:49:45;;;;;;;5.47;1.30;;;;;;;6.05;79.20;102226.06;5094739;28;20057;-82
2022/02/10 16:52:11;;;;;;;3.00;1.40;;;;;;;6.02;77.63;102231.28;5065718;28;20197;-82
2022/02/10 16:54:42;;;;;;;3.22;1.10;;;;;;;6.01;77.66;102232.13;5069758;28;20042;-82
2022/02/10 17:00:08;;;;;;;6.35;0.95;;;;;;;5.96;77.71;102231.25;5028042;28;20352;-82
2022/02/10 17:02:52;;;;;;;6.85;1.17;;;;;;;5.92;77.45;102237.31;5074579;28;20232;-82
2022/02/10 17:19:28;;;;;;;6.55;1.38;;;;;;;5.79;77.61;102246.81;5056807;28;20071;-82
2022/02/10 17:27:24;;;;;;;3.33;1.15;;;;;;;5.68;76.13;102249.41;5066236;28;20407;-83
2022/02/10 17:53:45;;;;;;;4.50;0.90;;;;;;;5.63;78.23;102263.25;5074850;28;20347;-82
2022/02/10 17:56:11;;;;;;;7.90;1.60;;;;;;;5.64;77.85;102262.38;5072723;28;20048;-82
2022/02/10 17:58:37;;;;;;;6.95;1.85;;;;;;;5.65;77.72;102269.31;5075229;28;20327;-82
2022/02/10 18:01:04;;;;;;;7.13;1.23;;;;;;;5.62;77.28;102270.19;5092210;28;20034;-82
2022/02/10 18:03:29;;;;;;;5.38;1.27;;;;;;;5.62;77.24;102269.28;5110583;28;20038;-82
2022/02/10 18:08:39;;;;;;;3.88;0.85;;;;;;;5.66;78.30;102258.94;5117085;28;20103;-82
2022/02/10 18:16:14;;;;;;;7.63;1.75;;;;;;;5.63;77.41;102276.25;5106528;28;20044;-82
2022/02/10 18:18:48;;;;;;;3.70;1.35;;;;;;;5.62;77.76;102267.59;5101132;28;20039;-82
2022/02/10 18:24:04;;;;;;;2.30;1.20;;;;;;;5.65;78.81;102264.13;5115414;28;20032;-83
2022/02/10 18:26:58;;;;;;;0.80;0.70;;;;;;;5.66;78.71;102268.47;5117060;28;20338;-83
2022/02/10 18:54:20;;;;;;;5.57;1.50;;;;;;;5.54;78.59;102277.06;5128878;27;20091;-83
2022/02/10 19:07:50;;;;;;;5.03;1.20;;;;;;;5.52;80.43;102282.25;5118354;28;20042;-83
2022/02/10 19:10:20;;;;;;;5.18;1.50;;;;;;;5.52;80.28;102286.59;5110505;28;20056;-83
2022/02/10 19:12:48;;;;;;;8.55;1.45;;;;;;;5.49;80.26;102296.97;5119920;28;20040;-83
2022/02/10 19:15:24;;;;;;;6.38;1.48;;;;;;;5.47;80.19;102283.97;5119356;28;20027;-82
2022/02/10 19:17:51;;;;;;;7.40;1.80;;;;;;;5.45;79.75;102284.84;5119573;27;20072;-82
2022/02/10 19:20:20;;;;;;;7.65;1.48;;;;;;;5.43;79.69;102290.03;5112976;28;20020;-82
2022/02/10 19:22:46;;;;;;;7.10;1.30;;;;;;;5.37;79.62;102270.09;5114548;28;20340;-82
2022/02/10 19:25:12;;;;;;;6.78;1.23;;;;;;;5.40;79.66;102274.41;5093857;28;20327;-82
2022/02/10 19:27:40;;;;;;;4.32;1.40;;;;;;;5.38;79.83;102279.63;5119697;28;20051;-82
2022/02/10 19:30:09;;;;;;;5.65;1.10;;;;;;;5.38;79.73;102282.22;5111595;28;20362;-82
2022/02/10 19:32:35;;;;;;;2.78;1.20;;;;;;;5.38;79.88;102276.16;5119479;28;20036;-83
2022/02/10 19:35:01;;;;;;;7.22;1.85;;;;;;;5.37;79.66;102280.47;5118533;28;20046;-82
2022/02/10 19:37:30;;;;;;;5.95;1.58;;;;;;;5.36;79.69;102281.31;5099919;28;20282;-82
2022/02/10 19:39:59;;;;;;;5.22;1.33;;;;;;;5.40;80.34;102284.81;5119334;28;20048;-82
2022/02/10 19:42:28;;;;;;;6.25;1.75;;;;;;;5.37;79.75;102288.28;5118306;28;20023;-82
2022/02/10 19:44:59;;;;;;;4.10;1.60;;;;;;;5.37;79.95;102285.69;5094617;28;20016;-82
2022/02/10 19:47:29;;;;;;;3.45;1.42;;;;;;;5.37;79.78;102292.63;5100915;28;20054;-82
2022/02/10 19:49:55;;;;;;;6.75;1.52;;;;;;;5.37;79.94;102295.22;5118227;28;20035;-82
2022/02/10 19:52:21;;;;;;;3.75;1.25;;;;;;;5.32;79.62;102289.13;5107735;28;20046;-82
2022/02/10 19:54:51;;;;;;;2.85;1.00;;;;;;;5.29;79.39;102283.91;5096232;28;20043;-82
2022/02/10 19:57:18;;;;;;;6.40;1.90;;;;;;;5.28;79.36;102282.19;5098889;28;20038;-82
2022/02/10 19:59:44;;;;;;;4.78;1.13;;;;;;;5.29;79.76;102279.56;5087939;28;20044;-82
2022/02/10 20:02:10;;;;;;;3.67;1.40;;;;;;;5.29;79.45;102282.16;5087458;28;20255;-82
2022/02/10 20:04:36;;;;;;;6.15;1.17;;;;;;;5.26;79.27;102284.78;5084698;28;20226;-82
2022/02/10 20:07:01;;;;;;;2.65;0.95;;;;;;;5.23;79.04;102289.09;5084059;28;20039;-82
2022/02/10 20:09:26;;;;;;;4.82;1.88;;;;;;;5.22;79.28;102292.53;5066506;28;20124;-82
2022/02/10 20:11:54;;;;;;;2.55;1.10;;;;;;;5.22;79.67;102290.81;5087888;28;20032;-82
2022/02/10 20:14:23;;;;;;;4.75;1.52;;;;;;;5.21;78.91;102289.06;5089296;28;20279;-82
2022/02/10 20:16:50;;;;;;;6.07;1.15;;;;;;;5.18;78.74;102297.72;5087132;28;20291;-82
2022/02/10 20:19:16;;;;;;;6.10;1.23;;;;;;;5.19;79.00;102299.44;5084514;28;20101;-82
2022/02/10 20:21:41;;;;;;;2.80;1.10;;;;;;;5.21;79.35;102296.88;5087310;28;20063;-82
2022/02/10 20:24:06;;;;;;;5.65;1.40;;;;;;;5.18;78.48;102292.53;5087028;28;20058;-82
2022/02/10 20:26:32;;;;;;;12.50;2.08;;;;;;;5.18;78.74;102295.13;5087268;28;20024;-82
2022/02/10 20:28:57;;;;;;;4.13;1.20;;;;;;;5.21;78.85;102298.59;5085894;28;20051;-82
2022/02/10 20:31:24;;;;;;;6.20;1.67;;;;;;;5.16;78.22;102299.41;5084303;28;20051;-82
2022/02/10 20:33:50;;;;;;;4.90;1.40;;;;;;;5.15;77.72;102295.09;5083495;28;20039;-82
2022/02/10 20:36:17;;;;;;;5.95;1.77;;;;;;;5.15;77.93;102295.09;5086410;28;20058;-82
2022/02/10 20:38:46;;;;;;;4.07;1.50;;;;;;;5.16;77.49;102301.16;5089002;28;20046;-83
2022/02/10 20:41:15;;;;;;;5.82;1.30;;;;;;;5.16;77.52;102301.16;5085696;28;20046;-83
2022/02/10 20:43:42;;;;;;;4.10;1.27;;;;;;;5.13;76.83;102307.22;5067274;28;20036;-83
2022/02/10 20:46:11;;;;;;;5.80;1.25;;;;;;;5.16;77.28;102314.16;5088506;28;20030;-83
2022/02/10 20:48:39;;;;;;;4.00;1.03;;;;;;;5.17;77.40;102300.31;5082384;28;20112;-82
2022/02/10 20:51:08;;;;;;;5.78;1.10;;;;;;;5.17;77.08;102305.50;5087308;28;20300;-82
2022/02/10 20:53:37;;;;;;;6.22;1.58;;;;;;;5.18;77.26;102302.91;5086911;28;20036;-82
2022/02/10 20:56:04;;;;;;;;;;;;;;;5.19;76.58;102303.78;5089556;28;20036;-82
2022/02/10 20:58:30;;;;;;;5.70;1.45;;;;;;;5.13;75.83;102302.03;5091303;28;20172;-82
2022/02/10 21:00:59;;;;;;;9.57;1.50;;;;;;;5.11;75.22;102293.38;5111221;28;20035;-82
2022/02/10 21:03:28;;;;;;;6.47;1.55;;;;;;;5.12;75.98;102300.28;5097675;28;20042;-82
2022/02/10 21:06:04;;;;;;;8.65;1.63;;;;;;;5.14;76.18;102310.69;5115591;28;20355;-82
2022/02/10 21:10:55;;;;;;;3.15;0.82;;;;;;;5.12;76.55;102296.81;5114365;28;20047;-82
2022/02/10 21:13:22;;;;;;;9.60;1.35;;;;;;;5.08;75.45;102295.94;5114177;28;20223;-82
2022/02/10 21:15:48;;;;;;;5.22;1.08;;;;;;;5.08;75.34;102292.47;5115165;28;20358;-82
2022/02/10 21:18:15;;;;;;;4.28;1.02;;;;;;;5.08;75.01;102295.06;5095751;28;20036;-82
2022/02/10 21:20:42;;;;;;;5.53;1.25;;;;;;;5.05;74.76;102282.91;5111146;28;20056;-82
2022/02/10 21:26:07;;;;;;;8.48;1.38;;;;;;;5.06;75.85;102294.16;5069579;28;20071;-82
2022/02/10 21:28:36;;;;;;;4.38;1.30;;;;;;;5.00;75.17;102282.03;5080509;28;20042;-82
2022/02/10 21:31:05;;;;;;;4.97;1.38;;;;;;;5.01;75.53;102278.59;5113523;28;20044;-82
2022/02/10 21:38:42;;;;;;;3.17;1.23;;;;;;;4.97;76.25;102285.47;5111252;28;20120;-82
2022/02/10 21:55:05;;;;;;;5.93;0.80;;;;;;;4.87;76.26;102286.28;5094115;28;20264;-82
2022/02/10 22:10:51;;;;;;;8.93;1.73;;;;;;;4.76;76.76;102288.81;5104537;28;20072;-82
2022/02/10 22:18:48;;;;;;;6.63;1.50;;;;;;;4.73;77.20;102281.00;5118635;27;20050;-82
2022/02/10 22:21:37;;;;;;;5.18;1.52;;;;;;;4.75;76.67;102294.88;5081134;28;20051;-82
2022/02/10 22:24:07;;;;;;;6.43;1.35;;;;;;;4.77;77.01;102306.13;5117649;28;20116;-82
2022/02/10 22:26:33;;;;;;;12.57;2.95;;;;;;;4.78;76.90;102302.69;5118237;28;20208;-82
2022/02/10 22:34:36;;;;;;;5.60;1.10;;;;;;;4.80;77.18;102306.16;5115829;28;20110;-82
2022/02/10 22:36:59;;;;;;;7.78;1.40;;;;;;;4.80;76.89;102302.66;5114555;27;20071;-82
2022/02/10 22:39:26;;;;;;;2.60;0.80;;;;;;;4.80;76.96;102294.88;5114221;27;20046;-82
2022/02/10 22:41:51;;;;;;;8.13;1.40;;;;;;;4.81;76.79;102294.03;5087341;27;20066;-82
2022/02/10 22:44:17;;;;;;;10.35;2.05;;;;;;;4.82;76.59;102293.19;5092039;28;20050;-82
2022/02/10 22:46:43;;;;;;;9.52;1.38;;;;;;;4.81;76.84;102296.63;5115673;28;20136;-82
2022/02/10 22:49:08;;;;;;;8.68;1.40;;;;;;;4.82;76.53;102288.00;5106185;28;20376;-82
2022/02/10 22:51:35;;;;;;;9.23;1.40;;;;;;;4.84;76.48;102293.19;5084333;28;20071;-82
2022/02/10 22:54:03;;;;;;;6.22;1.80;;;;;;;4.84;76.37;102296.66;5092164;28;20032;-82
2022/02/10 22:56:29;;;;;;;10.02;1.60;;;;;;;4.84;76.12;102295.78;5112787;27;20046;-82
2022/02/10 22:58:57;;;;;;;4.55;1.15;;;;;;;4.85;76.34;102292.34;5113645;28;20047;-82
2022/02/10 23:01:22;;;;;;;10.53;1.40;;;;;;;4.81;76.19;102300.09;5114154;28;20416;-82
2022/02/10 23:03:48;;;;;;;4.75;1.55;;;;;;;4.82;76.43;102306.16;5098613;28;20064;-82
2022/02/10 23:06:15;;;;;;;10.40;1.70;;;;;;;4.84;76.75;102311.34;5097269;28;20066;-82
2022/02/10 23:08:41;;;;;;;5.30;1.88;;;;;;;4.87;77.48;102307.03;5114295;28;20031;-82
2022/02/10 23:11:10;;;;;;;9.93;1.63;;;;;;;4.86;76.56;102322.59;5115783;28;20280;-82
2022/02/10 23:13:35;;;;;;;4.07;1.10;;;;;;;4.85;76.79;102315.69;5099254;28;20339;-82
2022/02/10 23:16:04;;;;;;;6.95;1.45;;;;;;;4.85;76.76;102311.34;5082411;28;20146;-82
2022/02/10 23:18:32;;;;;;;12.00;2.37;;;;;;;4.84;76.93;102319.13;5086069;28;20051;-82
2022/02/10 23:21:05;;;;;;;8.13;1.10;;;;;;;4.83;76.74;102307.91;5115084;28;20080;-82
2022/02/10 23:23:31;;;;;;;7.50;1.70;;;;;;;4.84;77.17;102320.03;5115224;28;20028;-82
2022/02/10 23:25:59;;;;;;;14.18;2.30;;;;;;;4.85;77.32;102319.16;5098399;28;20039;-82
2022/02/10 23:28:31;;;;;;;11.82;2.78;;;;;;;4.83;76.96;102307.03;5116684;28;20137;-82
2022/02/10 23:30:58;;;;;;;6.93;1.85;;;;;;;4.81;76.99;102313.06;5113732;28;20035;-82
2022/02/10 23:33:28;;;;;;;10.60;1.70;;;;;;;4.80;77.17;102311.34;5095308;28;20052;-82
2022/02/10 23:38:31;;;;;;;10.23;1.88;;;;;;;4.81;77.01;102313.06;5116835;28;20044;-82
2022/02/10 23:43:41;;;;;;;9.82;1.40;;;;;;;4.81;76.78;102325.19;5099386;28;20069;-82
2022/02/10 23:46:07;;;;;;;9.13;1.50;;;;;;;4.83;76.51;102323.47;5113279;28;20051;-82
2022/02/10 23:48:33;;;;;;;4.88;1.65;;;;;;;4.86;76.54;102322.59;5092960;28;20339;-82
2022/02/10 23:51:00;;;;;;;12.32;1.63;;;;;;;4.92;76.82;102317.47;5113725;28;20111;-82
2022/02/10 23:53:27;;;;;;;16.52;1.90;;;;;;;4.93;76.73;102339.97;5098130;28;20308;-82
2022/02/10 23:55:53;;;;;;;8.50;1.77;;;;;;;4.94;76.85;102320.94;5095211;28;20068;-82
2022/02/10 23:58:36;;;;;;;13.82;1.70;;;;;;;4.95;76.94;102328.75;5096621;28;20035;-82
